Terminal Aerodrome Forecast
Issued by NWS

Home | Current Version | Previous Version | Text Only | Print | Product List | Glossary On
Versions: 1 2 3 4 5 6 7 8 9 10 11 12 13 14 15
912
FTUS45 KVEF 202320
TAFVGT
TAF
KVGT 202320Z 2100/2124 32017G25KT P6SM VCSH SCT070 BKN080 BKN100
     FM210200 33012G21KT P6SM SCT100
     FM210500 33018G27KT P6SM FEW100 SCT250
     FM211200 33012G20KT P6SM FEW250
     FM211600 34011KT P6SM FEW250
     FM212000 11007KT P6SM SCT250=

USA.gov is the U.S. government's official web portal to all federal, state and local government web resources and services.